Time;durP1;ratioP1;P1;durP2;ratioP2;P2;SDS_P1;SDS_P2;PMS_P1;PMS_P2;Temp;Humidity;BMP_temperature;BMP_pressure;BME280_temperature;BME280_humidity;BME280_pressure;Samples;Min_cycle;Max_cycle;Signal;HPM_P1;HPM_P2
2023/06/23 00:01:54;;;;;;;2.63;1.15;;;;;;;;;;5053968;28;20028;-67
2023/06/23 00:04:40;;;;;;;2.30;1.33;;;;;;;;;;5048816;28;20117;-69
2023/06/23 00:07:25;;;;;;;2.63;1.50;;;;;;;;;;5055181;28;20058;-68
2023/06/23 00:10:10;;;;;;;2.85;1.58;;;;;;;;;;5055597;28;20118;-69
2023/06/23 00:12:55;;;;;;;2.45;1.27;;;;;;;;;;5055730;28;20119;-70
2023/06/23 00:15:40;;;;;;;3.00;1.30;;;;;;;;;;5046393;28;20055;-67
2023/06/23 00:18:26;;;;;;;1.33;1.10;;;;;;;;;;5051181;28;20093;-70
2023/06/23 00:21:11;;;;;;;1.20;1.10;;;;;;;;;;5059064;28;20109;-69
2023/06/23 00:23:56;;;;;;;1.75;1.25;;;;;;;;;;5064350;28;20483;-68
2023/06/23 00:26:41;;;;;;;1.13;0.93;;;;;;;;;;5063756;28;20039;-68
2023/06/23 00:29:27;;;;;;;1.50;1.20;;;;;;;;;;5054966;28;20036;-67
2023/06/23 00:32:12;;;;;;;1.85;1.38;;;;;;;;;;5053126;28;20438;-68
2023/06/23 00:34:57;;;;;;;4.32;1.92;;;;;;;;;;5051699;28;20044;-70
2023/06/23 00:37:43;;;;;;;2.42;1.20;;;;;;;;;;5049207;28;20036;-70
2023/06/23 00:40:28;;;;;;;2.95;1.52;;;;;;;;;;5054991;28;20107;-70
2023/06/23 00:43:15;;;;;;;1.92;1.27;;;;;;;;;;5054328;28;20177;-69
2023/06/23 00:46:11;;;;;;;3.28;1.30;;;;;;;;;;5054816;28;20120;-70
2023/06/23 00:48:56;;;;;;;2.75;1.42;;;;;;;;;;5042203;28;20032;-66
2023/06/23 00:51:41;;;;;;;1.42;1.30;;;;;;;;;;5059090;28;20479;-77
2023/06/23 00:54:28;;;;;;;1.88;1.42;;;;;;;;;;5054975;28;20115;-78
2023/06/23 00:57:13;;;;;;;1.20;1.10;;;;;;;;;;5059943;28;20056;-74
2023/06/23 00:59:59;;;;;;;1.50;1.25;;;;;;;;;;5053620;28;20482;-76
2023/06/23 01:02:44;;;;;;;2.70;1.30;;;;;;;;;;5054325;28;20043;-76
2023/06/23 01:05:37;;;;;;;1.65;1.35;;;;;;;;;;5052645;28;20059;-75
2023/06/23 01:08:41;;;;;;;2.08;1.30;;;;;;;;;;5053583;28;20845;-68
2023/06/23 01:11:39;;;;;;;3.92;1.65;;;;;;;;;;5054436;28;20024;-77
2023/06/23 01:14:47;;;;;;;2.38;1.35;;;;;;;;;;5060762;28;20033;-77
2023/06/23 01:17:36;;;;;;;2.45;1.50;;;;;;;;;;5050956;28;20115;-77
2023/06/23 01:20:27;;;;;;;1.70;1.50;;;;;;;;;;5049705;28;20115;-78
2023/06/23 01:23:22;;;;;;;4.45;2.60;;;;;;;;;;5053297;28;20497;-77
2023/06/23 01:26:19;;;;;;;2.63;1.95;;;;;;;;;;5053236;28;20382;-71
2023/06/23 01:29:09;;;;;;;1.95;1.58;;;;;;;;;;5055770;28;20078;-69
2023/06/23 01:31:57;;;;;;;3.20;1.40;;;;;;;;;;5057905;28;20029;-69
2023/06/23 01:34:49;;;;;;;2.17;1.70;;;;;;;;;;5043770;28;20076;-70
2023/06/23 01:37:35;;;;;;;2.83;1.40;;;;;;;;;;5052585;28;20506;-69
2023/06/23 01:40:22;;;;;;;3.15;1.67;;;;;;;;;;5057564;28;20047;-69
2023/06/23 01:43:08;;;;;;;3.15;1.80;;;;;;;;;;5039401;28;20039;-73
2023/06/23 01:45:55;;;;;;;4.38;2.33;;;;;;;;;;5052672;28;20033;-74
2023/06/23 01:48:42;;;;;;;3.65;2.55;;;;;;;;;;5052738;28;20037;-72
2023/06/23 01:51:28;;;;;;;4.07;2.72;;;;;;;;;;5043725;28;20029;-74
2023/06/23 01:54:14;;;;;;;3.92;2.70;;;;;;;;;;5053927;28;20029;-71
2023/06/23 01:57:00;;;;;;;6.50;3.17;;;;;;;;;;5046372;28;20037;-72
2023/06/23 01:59:46;;;;;;;4.03;2.70;;;;;;;;;;5051630;28;20465;-72
2023/06/23 02:02:31;;;;;;;4.75;3.08;;;;;;;;;;5052011;28;20035;-69
2023/06/23 02:05:17;;;;;;;5.75;2.88;;;;;;;;;;5040667;28;20519;-68
2023/06/23 02:08:03;;;;;;;4.13;2.78;;;;;;;;;;5053722;28;20036;-70
2023/06/23 02:10:48;;;;;;;4.05;2.67;;;;;;;;;;5047243;28;20064;-67
2023/06/23 02:13:35;;;;;;;5.70;3.60;;;;;;;;;;5053855;28;20021;-66
2023/06/23 02:16:21;;;;;;;5.47;2.90;;;;;;;;;;5053714;28;20036;-67
2023/06/23 02:19:07;;;;;;;3.45;2.47;;;;;;;;;;5052865;28;20037;-69
2023/06/23 02:21:53;;;;;;;4.20;2.65;;;;;;;;;;5053411;28;20071;-76
2023/06/23 02:24:39;;;;;;;2.90;2.20;;;;;;;;;;5055327;28;20086;-70
2023/06/23 02:27:25;;;;;;;4.57;2.90;;;;;;;;;;5067687;28;20060;-69
2023/06/23 02:30:10;;;;;;;2.70;2.05;;;;;;;;;;5078268;28;20040;-70
2023/06/23 02:32:56;;;;;;;3.47;2.50;;;;;;;;;;5042739;28;20434;-70
2023/06/23 02:35:41;;;;;;;2.53;2.30;;;;;;;;;;5057320;28;20032;-69
2023/06/23 02:38:27;;;;;;;2.65;1.95;;;;;;;;;;5057426;28;20074;-69
2023/06/23 02:41:14;;;;;;;3.30;2.40;;;;;;;;;;5056391;28;20028;-67
2023/06/23 02:44:00;;;;;;;3.15;2.20;;;;;;;;;;5057454;28;20071;-68
2023/06/23 02:46:48;;;;;;;3.70;2.70;;;;;;;;;;5056309;28;20128;-67
2023/06/23 02:49:37;;;;;;;4.15;2.90;;;;;;;;;;5055937;28;20112;-67
2023/06/23 02:52:23;;;;;;;3.73;2.67;;;;;;;;;;5044043;28;20041;-67
2023/06/23 02:55:09;;;;;;;5.35;2.80;;;;;;;;;;5072478;28;20039;-69
2023/06/23 02:57:55;;;;;;;6.63;3.67;;;;;;;;;;5060399;28;20032;-63
2023/06/23 03:00:41;;;;;;;5.15;3.92;;;;;;;;;;5056781;28;20085;-76
2023/06/23 03:03:26;;;;;;;5.47;3.42;;;;;;;;;;5055847;28;20064;-76
2023/06/23 03:06:18;;;;;;;5.22;3.47;;;;;;;;;;5056692;28;20510;-75
2023/06/23 03:09:03;;;;;;;6.03;3.20;;;;;;;;;;5056826;28;20119;-75
2023/06/23 03:11:48;;;;;;;6.07;3.30;;;;;;;;;;5056892;28;20349;-76
2023/06/23 03:14:35;;;;;;;5.80;4.00;;;;;;;;;;5042546;28;20112;-74
2023/06/23 03:17:22;;;;;;;6.80;4.72;;;;;;;;;;5044972;28;20107;-70
2023/06/23 03:20:21;;;;;;;5.72;3.88;;;;;;;;;;5055128;28;20040;-68
2023/06/23 03:23:10;;;;;;;6.28;4.57;;;;;;;;;;5055426;28;20498;-68
2023/06/23 03:26:02;;;;;;;6.75;4.65;;;;;;;;;;5056866;28;20035;-68
2023/06/23 03:28:53;;;;;;;7.85;5.22;;;;;;;;;;5050339;28;20113;-68
2023/06/23 03:31:41;;;;;;;8.85;5.53;;;;;;;;;;5050162;28;20028;-67
2023/06/23 03:34:31;;;;;;;7.60;4.25;;;;;;;;;;5055001;28;20063;-69
2023/06/23 03:37:19;;;;;;;8.32;4.43;;;;;;;;;;5055295;28;20032;-69
2023/06/23 03:40:11;;;;;;;7.97;5.13;;;;;;;;;;5055767;28;20032;-69
2023/06/23 03:43:01;;;;;;;7.88;5.53;;;;;;;;;;5055193;28;20611;-70
2023/06/23 03:45:49;;;;;;;7.25;4.60;;;;;;;;;;5055137;28;20055;-71
2023/06/23 03:48:36;;;;;;;6.97;4.57;;;;;;;;;;5055122;28;20076;-71
2023/06/23 03:51:24;;;;;;;6.68;4.72;;;;;;;;;;5045761;28;20040;-70
2023/06/23 03:54:09;;;;;;;6.55;4.35;;;;;;;;;;5055152;28;20772;-71
2023/06/23 03:56:55;;;;;;;6.55;3.85;;;;;;;;;;5067161;28;20024;-65
2023/06/23 03:59:41;;;;;;;7.55;5.25;;;;;;;;;;5055807;28;20123;-66
2023/06/23 04:02:29;;;;;;;8.00;5.68;;;;;;;;;;5055599;28;20040;-66
2023/06/23 04:05:15;;;;;;;7.47;5.30;;;;;;;;;;5054873;28;20190;-65
2023/06/23 04:08:02;;;;;;;9.73;6.25;;;;;;;;;;5069395;28;20040;-64
2023/06/23 04:10:48;;;;;;;11.05;6.50;;;;;;;;;;5045927;28;20028;-67
2023/06/23 04:13:35;;;;;;;8.95;5.75;;;;;;;;;;5055590;28;20029;-72
2023/06/23 04:16:20;;;;;;;9.82;5.88;;;;;;;;;;5055636;28;20032;-73
2023/06/23 04:19:07;;;;;;;8.60;5.85;;;;;;;;;;5054638;28;20044;-73
2023/06/23 04:21:52;;;;;;;8.40;5.47;;;;;;;;;;5069153;28;20533;-72
2023/06/23 04:24:38;;;;;;;9.25;6.88;;;;;;;;;;5055543;28;20037;-71
2023/06/23 04:27:25;;;;;;;9.70;6.35;;;;;;;;;;5055623;28;20540;-72
2023/06/23 04:30:11;;;;;;;10.43;6.38;;;;;;;;;;5066622;28;20478;-66
2023/06/23 04:32:56;;;;;;;8.70;5.85;;;;;;;;;;5041904;28;20032;-66
2023/06/23 04:35:42;;;;;;;10.77;6.95;;;;;;;;;;5054035;28;20115;-69
2023/06/23 04:38:31;;;;;;;7.68;5.47;;;;;;;;;;5055209;28;20043;-68
2023/06/23 04:41:18;;;;;;;11.30;6.82;;;;;;;;;;5055326;28;20059;-67
2023/06/23 04:44:05;;;;;;;10.70;6.95;;;;;;;;;;5053971;28;20048;-68
2023/06/23 04:46:52;;;;;;;9.48;7.30;;;;;;;;;;5062163;28;20037;-69
2023/06/23 04:49:38;;;;;;;9.93;6.85;;;;;;;;;;5051683;28;20032;-67
2023/06/23 04:52:26;;;;;;;9.82;6.40;;;;;;;;;;5054888;28;20036;-71
2023/06/23 04:55:13;;;;;;;10.60;7.43;;;;;;;;;;5059803;28;20028;-72
2023/06/23 04:57:59;;;;;;;10.02;7.05;;;;;;;;;;5056916;28;20040;-71
2023/06/23 05:00:45;;;;;;;10.73;6.22;;;;;;;;;;5054811;28;20033;-71
2023/06/23 05:03:32;;;;;;;11.07;6.63;;;;;;;;;;5055032;28;20028;-72
2023/06/23 05:06:18;;;;;;;10.32;6.47;;;;;;;;;;5039427;28;20041;-67
2023/06/23 05:09:04;;;;;;;10.40;6.85;;;;;;;;;;5053905;28;20499;-69
2023/06/23 05:11:51;;;;;;;10.57;7.97;;;;;;;;;;5054928;28;20360;-69
2023/06/23 05:14:38;;;;;;;12.90;8.05;;;;;;;;;;5054480;28;20241;-68
2023/06/23 05:17:25;;;;;;;12.85;7.50;;;;;;;;;;5030008;28;20090;-70
2023/06/23 05:20:11;;;;;;;11.90;8.27;;;;;;;;;;5053613;28;20044;-69
2023/06/23 05:22:57;;;;;;;13.50;7.45;;;;;;;;;;5054345;28;20388;-69
2023/06/23 05:25:44;;;;;;;13.52;8.88;;;;;;;;;;5053653;28;20044;-75
2023/06/23 05:28:32;;;;;;;13.35;8.70;;;;;;;;;;5054867;28;20641;-69
2023/06/23 05:31:19;;;;;;;12.00;8.50;;;;;;;;;;5054455;28;20112;-69
2023/06/23 05:34:09;;;;;;;16.10;9.45;;;;;;;;;;5054175;28;20112;-67
2023/06/23 05:36:55;;;;;;;12.13;8.48;;;;;;;;;;5053158;28;20040;-67
2023/06/23 05:39:41;;;;;;;12.25;8.23;;;;;;;;;;5054267;28;20070;-67
2023/06/23 05:42:29;;;;;;;12.93;8.90;;;;;;;;;;5054125;28;20033;-73
2023/06/23 05:45:14;;;;;;;13.95;9.85;;;;;;;;;;5053160;28;20028;-67
2023/06/23 05:48:04;;;;;;;15.50;9.63;;;;;;;;;;5053378;28;20037;-70
2023/06/23 05:50:49;;;;;;;14.95;11.65;;;;;;;;;;5051337;28;20029;-69
2023/06/23 05:53:36;;;;;;;14.20;10.73;;;;;;;;;;5053218;28;20037;-68
2023/06/23 05:56:33;;;;;;;15.27;8.65;;;;;;;;;;5053534;28;20032;-71
2023/06/23 05:59:22;;;;;;;15.27;9.93;;;;;;;;;;5053138;28;20391;-69
2023/06/23 06:02:09;;;;;;;16.58;10.88;;;;;;;;;;5058247;28;20024;-71
2023/06/23 06:04:56;;;;;;;15.80;11.45;;;;;;;;;;5057857;28;20035;-66
2023/06/23 06:07:41;;;;;;;14.63;9.23;;;;;;;;;;5057299;28;20032;-67
2023/06/23 06:10:28;;;;;;;15.70;11.05;;;;;;;;;;5057225;28;20037;-67
2023/06/23 06:13:13;;;;;;;17.17;11.75;;;;;;;;;;5057151;28;20064;-68
2023/06/23 06:15:59;;;;;;;17.52;11.85;;;;;;;;;;5043100;28;20203;-67
2023/06/23 06:18:45;;;;;;;14.48;10.63;;;;;;;;;;5054760;28;20039;-74
2023/06/23 06:21:32;;;;;;;15.93;11.95;;;;;;;;;;5056348;28;20036;-67
2023/06/23 06:24:18;;;;;;;13.90;9.82;;;;;;;;;;5057771;28;20036;-75
2023/06/23 06:27:06;;;;;;;16.60;11.23;;;;;;;;;;5068827;28;20045;-74
2023/06/23 06:29:52;;;;;;;14.27;10.10;;;;;;;;;;5080812;28;20035;-74
2023/06/23 06:32:38;;;;;;;15.15;11.38;;;;;;;;;;5045644;28;20036;-74
2023/06/23 06:35:23;;;;;;;14.30;9.57;;;;;;;;;;5057049;28;20036;-75
2023/06/23 06:38:09;;;;;;;16.20;11.55;;;;;;;;;;5056447;28;20054;-71
2023/06/23 06:40:55;;;;;;;17.73;12.80;;;;;;;;;;5056783;28;20033;-67
2023/06/23 06:43:40;;;;;;;16.98;11.35;;;;;;;;;;5057347;28;20067;-67
2023/06/23 06:46:26;;;;;;;12.73;9.68;;;;;;;;;;5042443;28;20127;-68
2023/06/23 06:49:12;;;;;;;16.90;11.77;;;;;;;;;;5057462;28;20094;-68
2023/06/23 06:51:59;;;;;;;16.17;11.15;;;;;;;;;;5048931;28;20087;-68
2023/06/23 06:54:44;;;;;;;20.65;11.25;;;;;;;;;;5058575;28;20029;-67
2023/06/23 06:57:31;;;;;;;15.70;11.00;;;;;;;;;;5064497;28;20032;-74
2023/06/23 07:00:17;;;;;;;11.55;9.02;;;;;;;;;;5056220;28;20040;-66
2023/06/23 07:03:03;;;;;;;15.20;9.80;;;;;;;;;;5056334;28;20044;-67
2023/06/23 07:05:49;;;;;;;15.10;11.65;;;;;;;;;;5055232;28;20120;-68
2023/06/23 07:08:34;;;;;;;14.70;9.40;;;;;;;;;;5040189;28;20048;-64
2023/06/23 07:11:19;;;;;;;13.18;9.13;;;;;;;;;;5054238;28;20036;-67
2023/06/23 07:14:05;;;;;;;14.00;10.30;;;;;;;;;;5054664;28;20468;-74
2023/06/23 07:16:50;;;;;;;12.82;9.55;;;;;;;;;;5056129;28;20383;-66
2023/06/23 07:19:37;;;;;;;14.50;9.23;;;;;;;;;;5055409;28;20223;-66
2023/06/23 07:22:23;;;;;;;13.27;10.20;;;;;;;;;;5052648;28;20129;-67
2023/06/23 07:25:08;;;;;;;14.20;10.25;;;;;;;;;;5053798;28;20094;-67
2023/06/23 07:27:53;;;;;;;12.43;8.35;;;;;;;;;;5064837;28;20427;-66
2023/06/23 07:30:39;;;;;;;14.20;8.35;;;;;;;;;;5067396;28;20072;-67
2023/06/23 07:33:25;;;;;;;13.90;9.02;;;;;;;;;;5053991;28;20047;-67
2023/06/23 07:36:10;;;;;;;12.55;9.50;;;;;;;;;;5055548;28;20115;-69
2023/06/23 07:38:55;;;;;;;15.82;10.60;;;;;;;;;;5051372;28;20025;-69
2023/06/23 07:41:40;;;;;;;13.50;9.18;;;;;;;;;;5045168;28;20032;-70
2023/06/23 07:44:26;;;;;;;11.40;7.38;;;;;;;;;;5055703;28;20016;-68
2023/06/23 07:47:12;;;;;;;13.02;9.43;;;;;;;;;;5054365;28;20033;-69
2023/06/23 07:49:57;;;;;;;12.55;8.73;;;;;;;;;;5040121;28;20032;-69
2023/06/23 07:52:44;;;;;;;12.38;8.80;;;;;;;;;;5063980;28;20519;-69
2023/06/23 07:55:29;;;;;;;14.98;8.23;;;;;;;;;;5054600;28;20032;-70
2023/06/23 07:58:14;;;;;;;12.20;8.18;;;;;;;;;;5054378;28;20036;-70
2023/06/23 08:00:59;;;;;;;11.23;7.43;;;;;;;;;;5063671;28;20090;-69
2023/06/23 08:03:46;;;;;;;14.88;8.30;;;;;;;;;;5055696;28;20426;-68
2023/06/23 08:06:31;;;;;;;12.20;8.18;;;;;;;;;;5054411;28;20036;-68
2023/06/23 08:09:16;;;;;;;10.55;7.57;;;;;;;;;;5055478;28;20498;-69
2023/06/23 08:12:01;;;;;;;11.95;7.55;;;;;;;;;;5055756;28;20562;-68
2023/06/23 08:14:47;;;;;;;11.35;8.18;;;;;;;;;;5055511;28;20040;-72
2023/06/23 08:17:32;;;;;;;9.93;7.47;;;;;;;;;;5053878;28;20442;-73
2023/06/23 08:20:17;;;;;;;11.60;7.93;;;;;;;;;;5067024;28;20124;-72
2023/06/23 08:23:02;;;;;;;9.85;6.28;;;;;;;;;;5051800;28;20099;-72
2023/06/23 08:25:48;;;;;;;10.80;6.57;;;;;;;;;;5053227;28;20110;-72
2023/06/23 08:28:33;;;;;;;8.55;5.82;;;;;;;;;;5061726;28;20048;-69
2023/06/23 08:31:18;;;;;;;11.98;6.68;;;;;;;;;;5055600;28;20120;-69
2023/06/23 08:34:03;;;;;;;12.65;7.30;;;;;;;;;;5054985;28;20075;-69
2023/06/23 08:36:49;;;;;;;12.02;8.15;;;;;;;;;;5053736;28;20040;-69
2023/06/23 08:39:34;;;;;;;9.27;6.43;;;;;;;;;;5067874;28;20368;-69
2023/06/23 08:42:20;;;;;;;12.60;7.30;;;;;;;;;;5055065;28;20045;-71
2023/06/23 08:45:06;;;;;;;9.43;6.53;;;;;;;;;;5052396;28;20613;-72
2023/06/23 08:47:53;;;;;;;8.68;5.85;;;;;;;;;;5052567;28;20036;-68
2023/06/23 08:50:38;;;;;;;11.25;6.97;;;;;;;;;;5046156;28;20111;-69
2023/06/23 08:53:23;;;;;;;10.40;6.57;;;;;;;;;;5046600;28;20039;-69
2023/06/23 08:56:09;;;;;;;14.57;6.97;;;;;;;;;;5065677;28;20039;-68
2023/06/23 08:58:54;;;;;;;9.65;6.93;;;;;;;;;;5054279;28;20033;-68
2023/06/23 09:01:40;;;;;;;7.72;5.65;;;;;;;;;;5054244;28;20032;-69
2023/06/23 09:04:25;;;;;;;9.05;6.22;;;;;;;;;;5054252;28;20029;-67
2023/06/23 09:07:10;;;;;;;11.35;7.40;;;;;;;;;;5041899;28;20043;-76
2023/06/23 09:09:56;;;;;;;12.80;6.47;;;;;;;;;;5053974;28;20054;-66
2023/06/23 09:12:42;;;;;;;13.48;6.57;;;;;;;;;;5034945;28;20037;-66
2023/06/23 09:15:27;;;;;;;8.80;6.32;;;;;;;;;;5054973;28;20068;-67
2023/06/23 09:18:14;;;;;;;10.02;6.97;;;;;;;;;;5051433;28;20036;-68
2023/06/23 09:21:01;;;;;;;9.90;6.53;;;;;;;;;;5054217;28;20029;-64
2023/06/23 09:23:58;;;;;;;9.93;6.28;;;;;;;;;;5053130;28;20066;-69
2023/06/23 09:26:51;;;;;;;9.73;6.40;;;;;;;;;;5057666;28;20498;-77
2023/06/23 09:29:39;;;;;;;8.63;6.22;;;;;;;;;;5061099;28;20024;-78
2023/06/23 09:32:28;;;;;;;10.40;5.70;;;;;;;;;;5057136;28;20035;-78
2023/06/23 09:35:17;;;;;;;9.40;6.32;;;;;;;;;;5054348;28;20036;-78
2023/06/23 09:38:03;;;;;;;10.23;6.03;;;;;;;;;;5053332;28;20040;-78
2023/06/23 09:41:00;;;;;;;10.32;6.45;;;;;;;;;;5053804;28;20605;-77
2023/06/23 09:43:52;;;;;;;8.48;5.78;;;;;;;;;;5053914;28;20133;-68
2023/06/23 09:46:38;;;;;;;8.45;5.10;;;;;;;;;;5052794;28;20505;-65
2023/06/23 09:49:23;;;;;;;8.63;5.15;;;;;;;;;;5054076;28;20037;-65
2023/06/23 09:52:11;;;;;;;8.15;5.05;;;;;;;;;;5043699;28;20040;-65
2023/06/23 09:54:56;;;;;;;10.73;6.05;;;;;;;;;;5043433;28;20036;-70
2023/06/23 09:57:41;;;;;;;8.93;5.25;;;;;;;;;;5059373;28;20032;-69
2023/06/23 10:00:30;;;;;;;9.10;5.25;;;;;;;;;;5053153;28;20050;-71
2023/06/23 10:03:16;;;;;;;9.07;4.90;;;;;;;;;;5053679;28;20056;-68
2023/06/23 10:06:01;;;;;;;7.15;5.28;;;;;;;;;;5054124;28;20032;-69
2023/06/23 10:08:46;;;;;;;8.93;4.60;;;;;;;;;;5051652;28;20501;-68
2023/06/23 10:11:32;;;;;;;6.97;4.78;;;;;;;;;;5054636;28;20036;-67
2023/06/23 10:14:18;;;;;;;10.27;4.72;;;;;;;;;;5053255;28;20040;-69
2023/06/23 10:17:03;;;;;;;7.22;4.72;;;;;;;;;;5050182;28;20028;-70
2023/06/23 10:19:50;;;;;;;9.35;4.93;;;;;;;;;;5053719;28;20039;-70
2023/06/23 10:22:36;;;;;;;12.50;5.20;;;;;;;;;;5052900;28;20025;-69
2023/06/23 10:25:22;;;;;;;8.43;4.78;;;;;;;;;;5053785;28;20139;-69
2023/06/23 10:28:08;;;;;;;8.68;4.85;;;;;;;;;;5064578;28;20036;-70
2023/06/23 10:30:54;;;;;;;9.30;5.63;;;;;;;;;;5052760;28;20417;-70
2023/06/23 10:33:40;;;;;;;6.68;4.60;;;;;;;;;;5053870;28;20060;-71
2023/06/23 10:36:27;;;;;;;6.47;4.50;;;;;;;;;;5053765;28;20144;-70
2023/06/23 10:39:12;;;;;;;8.18;4.45;;;;;;;;;;5052213;28;20043;-74
2023/06/23 10:41:58;;;;;;;8.25;4.30;;;;;;;;;;5053780;28;20068;-72
2023/06/23 10:44:44;;;;;;;7.40;4.88;;;;;;;;;;5053326;28;20103;-71
2023/06/23 10:47:29;;;;;;;5.28;3.83;;;;;;;;;;5055741;28;20518;-70
2023/06/23 10:50:14;;;;;;;8.10;5.53;;;;;;;;;;5052128;28;20288;-69
2023/06/23 10:53:10;;;;;;;6.50;4.63;;;;;;;;;;5053504;28;20024;-69
2023/06/23 10:55:58;;;;;;;9.10;4.63;;;;;;;;;;5061601;28;20062;-70
2023/06/23 10:58:50;;;;;;;7.00;4.80;;;;;;;;;;5057036;28;20040;-71
2023/06/23 11:01:55;;;;;;;5.82;4.57;;;;;;;;;;5069365;28;20106;-70
2023/06/23 11:04:49;;;;;;;7.88;4.63;;;;;;;;;;5056330;28;20059;-72
2023/06/23 11:07:54;;;;;;;6.60;4.47;;;;;;;;;;5053203;28;20059;-70
2023/06/23 11:10:46;;;;;;;5.65;3.70;;;;;;;;;;5053371;28;20048;-70
2023/06/23 11:13:47;;;;;;;6.75;4.47;;;;;;;;;;5053963;28;20452;-71
2023/06/23 11:16:38;;;;;;;8.93;4.40;;;;;;;;;;5056426;28;20044;-70
2023/06/23 11:19:27;;;;;;;6.18;4.25;;;;;;;;;;5056058;28;20078;-71
2023/06/23 11:22:18;;;;;;;6.35;4.15;;;;;;;;;;5055805;28;20511;-70
2023/06/23 11:25:04;;;;;;;7.10;4.70;;;;;;;;;;5054685;28;20040;-70
2023/06/23 11:28:08;;;;;;;4.85;3.67;;;;;;;;;;5078675;28;20033;-70
2023/06/23 11:31:00;;;;;;;7.28;4.00;;;;;;;;;;5059736;28;20024;-72
2023/06/23 11:33:58;;;;;;;6.38;4.32;;;;;;;;;;5056310;28;20040;-70
2023/06/23 11:36:43;;;;;;;5.70;3.67;;;;;;;;;;5056411;28;20024;-74
2023/06/23 11:39:29;;;;;;;8.35;4.10;;;;;;;;;;5069344;28;20036;-74
2023/06/23 11:42:15;;;;;;;9.95;4.82;;;;;;;;;;5056356;28;20029;-74
2023/06/23 11:45:00;;;;;;;9.57;4.22;;;;;;;;;;5056926;28;20469;-74
2023/06/23 11:47:49;;;;;;;6.18;4.47;;;;;;;;;;5055462;28;20033;-73
2023/06/23 11:50:34;;;;;;;7.38;4.43;;;;;;;;;;5054054;28;20048;-71
2023/06/23 11:53:20;;;;;;;8.02;4.78;;;;;;;;;;5056424;28;20435;-73
2023/06/23 11:56:05;;;;;;;6.43;4.55;;;;;;;;;;5066396;28;20032;-70
2023/06/23 11:58:52;;;;;;;7.22;4.47;;;;;;;;;;5056539;28;20033;-71
2023/06/23 12:01:37;;;;;;;6.78;4.45;;;;;;;;;;5055511;28;20035;-71
2023/06/23 12:04:23;;;;;;;6.50;4.07;;;;;;;;;;5056319;28;20479;-72
2023/06/23 12:07:10;;;;;;;6.28;4.18;;;;;;;;;;5056500;28;20036;-71
2023/06/23 12:09:55;;;;;;;8.20;4.68;;;;;;;;;;5053943;28;20020;-73
2023/06/23 12:12:43;;;;;;;7.20;4.03;;;;;;;;;;5056306;28;20037;-69
2023/06/23 12:15:29;;;;;;;5.72;4.18;;;;;;;;;;5055990;28;20040;-69
2023/06/23 12:18:14;;;;;;;5.55;3.92;;;;;;;;;;5054864;28;20111;-69
2023/06/23 12:21:00;;;;;;;7.93;4.57;;;;;;;;;;5045818;28;20029;-69
2023/06/23 12:23:45;;;;;;;6.25;3.95;;;;;;;;;;5054168;28;20051;-67
2023/06/23 12:26:30;;;;;;;6.10;3.63;;;;;;;;;;5062034;28;20044;-68
2023/06/23 12:29:16;;;;;;;5.47;3.80;;;;;;;;;;5057599;28;20506;-70
2023/06/23 12:32:02;;;;;;;5.65;3.60;;;;;;;;;;5062395;28;20136;-68
2023/06/23 12:34:48;;;;;;;6.72;3.97;;;;;;;;;;5055214;28;20510;-69
2023/06/23 12:37:50;;;;;;;9.70;4.50;;;;;;;;;;5053899;28;20033;-69
2023/06/23 12:40:35;;;;;;;6.38;4.18;;;;;;;;;;5064630;28;20036;-67
2023/06/23 12:43:21;;;;;;;9.35;4.00;;;;;;;;;;5035264;28;20125;-68
2023/06/23 12:46:08;;;;;;;8.73;4.50;;;;;;;;;;5065859;28;20024;-73
2023/06/23 12:48:54;;;;;;;7.75;4.45;;;;;;;;;;5053630;28;20082;-72
2023/06/23 12:51:39;;;;;;;7.68;4.55;;;;;;;;;;5051942;28;20032;-71
2023/06/23 12:54:26;;;;;;;6.45;4.10;;;;;;;;;;5053697;28;20387;-73
2023/06/23 12:57:11;;;;;;;8.32;5.13;;;;;;;;;;5056932;28;20067;-72
2023/06/23 12:59:57;;;;;;;6.70;4.43;;;;;;;;;;5054897;28;20012;-71
2023/06/23 13:02:42;;;;;;;8.30;3.95;;;;;;;;;;5054250;28;20032;-72
2023/06/23 13:05:28;;;;;;;6.55;4.25;;;;;;;;;;5055346;28;20463;-69
2023/06/23 13:08:14;;;;;;;4.60;3.35;;;;;;;;;;5054144;28;20036;-71
2023/06/23 13:10:59;;;;;;;6.00;4.18;;;;;;;;;;5049234;28;20542;-69
2023/06/23 13:13:44;;;;;;;4.72;3.70;;;;;;;;;;5054688;28;20036;-70
2023/06/23 13:16:30;;;;;;;7.40;4.40;;;;;;;;;;5051467;28;20044;-71
2023/06/23 13:19:15;;;;;;;5.63;3.55;;;;;;;;;;5050400;28;20029;-70
2023/06/23 13:22:00;;;;;;;4.95;3.28;;;;;;;;;;5050350;28;20043;-74
2023/06/23 13:24:46;;;;;;;5.93;4.10;;;;;;;;;;5053082;28;20680;-68
2023/06/23 13:27:31;;;;;;;4.72;3.38;;;;;;;;;;5064918;28;20111;-70
2023/06/23 13:30:16;;;;;;;6.57;3.80;;;;;;;;;;5071031;28;20028;-72
2023/06/23 13:33:01;;;;;;;4.38;3.53;;;;;;;;;;5042295;28;20089;-72
2023/06/23 13:35:47;;;;;;;5.78;3.33;;;;;;;;;;5054685;28;20028;-71
2023/06/23 13:38:32;;;;;;;4.78;3.65;;;;;;;;;;5052907;28;20029;-70
2023/06/23 13:41:17;;;;;;;5.13;3.30;;;;;;;;;;5051379;28;20028;-70
2023/06/23 13:44:02;;;;;;;7.18;3.80;;;;;;;;;;5054197;28;20040;-70
2023/06/23 13:46:48;;;;;;;5.10;3.45;;;;;;;;;;5054089;28;20100;-70
2023/06/23 13:49:33;;;;;;;4.68;3.10;;;;;;;;;;5054782;28;20120;-70
2023/06/23 13:52:18;;;;;;;8.10;3.25;;;;;;;;;;5052956;28;20127;-71
2023/06/23 13:55:04;;;;;;;5.15;3.40;;;;;;;;;;5052088;28;20615;-72
2023/06/23 13:57:49;;;;;;;5.53;3.15;;;;;;;;;;5051505;28;20040;-70
2023/06/23 14:00:34;;;;;;;6.00;3.22;;;;;;;;;;5053196;28;20439;-74
2023/06/23 14:03:19;;;;;;;5.50;3.08;;;;;;;;;;5052990;28;20117;-69
2023/06/23 14:06:05;;;;;;;4.25;2.88;;;;;;;;;;5053925;28;20051;-70
2023/06/23 14:08:54;;;;;;;8.13;2.80;;;;;;;;;;5054119;28;20076;-71
2023/06/23 14:11:40;;;;;;;5.22;2.55;;;;;;;;;;5052560;28;20563;-70
2023/06/23 14:14:25;;;;;;;4.18;2.90;;;;;;;;;;5054500;28;20032;-70
2023/06/23 14:17:10;;;;;;;4.53;2.75;;;;;;;;;;5053813;28;20493;-69
2023/06/23 14:19:56;;;;;;;3.70;2.67;;;;;;;;;;5054092;28;20067;-73
2023/06/23 14:22:41;;;;;;;4.13;2.50;;;;;;;;;;5057752;28;20036;-73
2023/06/23 14:25:26;;;;;;;7.63;3.30;;;;;;;;;;5055802;28;20483;-73
2023/06/23 14:28:11;;;;;;;4.97;3.13;;;;;;;;;;5047148;28;20151;-74
2023/06/23 14:30:56;;;;;;;4.57;2.80;;;;;;;;;;5071185;28;20471;-73
2023/06/23 14:33:42;;;;;;;6.15;3.13;;;;;;;;;;5041318;28;20228;-74
2023/06/23 14:36:28;;;;;;;5.22;2.70;;;;;;;;;;5052735;28;20037;-73
2023/06/23 14:39:13;;;;;;;4.28;2.85;;;;;;;;;;5057016;28;20033;-71
2023/06/23 14:41:58;;;;;;;5.00;2.88;;;;;;;;;;5041914;28;20036;-69
2023/06/23 14:44:44;;;;;;;4.13;2.60;;;;;;;;;;5057284;28;20032;-70
2023/06/23 14:47:29;;;;;;;6.07;2.60;;;;;;;;;;5055893;28;20537;-69
2023/06/23 14:50:14;;;;;;;4.30;2.80;;;;;;;;;;5051993;28;20032;-69
2023/06/23 14:53:00;;;;;;;5.68;3.10;;;;;;;;;;5055060;28;20118;-69
2023/06/23 14:55:45;;;;;;;5.72;2.92;;;;;;;;;;5058957;28;20040;-70
2023/06/23 14:58:30;;;;;;;4.80;3.45;;;;;;;;;;5044065;28;20048;-68
2023/06/23 15:01:16;;;;;;;7.43;4.03;;;;;;;;;;5057048;28;20363;-67
2023/06/23 15:04:01;;;;;;;19.85;3.10;;;;;;;;;;5057105;28;20442;-67
2023/06/23 15:06:46;;;;;;;7.32;3.20;;;;;;;;;;5055875;28;20036;-68
2023/06/23 15:09:31;;;;;;;5.22;3.17;;;;;;;;;;5070847;28;20033;-68
2023/06/23 15:12:17;;;;;;;8.32;3.40;;;;;;;;;;5055407;28;20056;-67
2023/06/23 15:15:02;;;;;;;6.15;2.92;;;;;;;;;;5056600;28;20040;-73
2023/06/23 15:17:47;;;;;;;3.78;2.70;;;;;;;;;;5056904;28;20047;-72
2023/06/23 15:20:33;;;;;;;4.72;2.95;;;;;;;;;;5056348;28;20040;-72
2023/06/23 15:23:21;;;;;;;4.70;3.35;;;;;;;;;;5056639;28;20032;-72
2023/06/23 15:26:06;;;;;;;5.90;2.97;;;;;;;;;;5060110;28;20483;-71
2023/06/23 15:28:51;;;;;;;3.58;2.65;;;;;;;;;;5052368;28;20467;-73
2023/06/23 15:31:36;;;;;;;5.05;3.33;;;;;;;;;;5065989;28;20395;-71
2023/06/23 15:34:27;;;;;;;6.60;3.28;;;;;;;;;;5069762;28;20479;-70
2023/06/23 15:37:13;;;;;;;5.00;2.90;;;;;;;;;;5055042;28;20133;-70
2023/06/23 15:39:58;;;;;;;3.67;2.72;;;;;;;;;;5054484;28;20026;-70
2023/06/23 15:42:43;;;;;;;5.18;2.92;;;;;;;;;;5054728;28;20032;-70
2023/06/23 15:45:29;;;;;;;4.32;2.92;;;;;;;;;;5056311;28;20033;-70
2023/06/23 15:48:14;;;;;;;4.20;2.85;;;;;;;;;;5055084;28;20461;-70
2023/06/23 15:51:00;;;;;;;4.57;3.05;;;;;;;;;;5041031;28;20068;-69
2023/06/23 15:53:45;;;;;;;8.80;3.28;;;;;;;;;;5056009;28;20035;-67
2023/06/23 15:56:30;;;;;;;5.82;3.67;;;;;;;;;;5067746;28;20029;-67
2023/06/23 15:59:17;;;;;;;3.78;2.70;;;;;;;;;;5055778;28;20107;-68
2023/06/23 16:02:02;;;;;;;4.97;2.83;;;;;;;;;;5055864;28;20078;-67
2023/06/23 16:04:47;;;;;;;5.00;2.97;;;;;;;;;;5055405;28;20123;-67
2023/06/23 16:07:32;;;;;;;6.28;3.30;;;;;;;;;;5054604;28;20111;-68
2023/06/23 16:10:18;;;;;;;5.40;3.30;;;;;;;;;;5051969;28;20124;-71
2023/06/23 16:13:03;;;;;;;4.32;2.55;;;;;;;;;;5085533;22;20495;-74
2023/06/23 16:15:48;;;;;;;5.60;2.53;;;;;;;;;;5080117;28;20032;-72
2023/06/23 16:18:35;;;;;;;4.72;3.13;;;;;;;;;;5079970;28;20531;-72
2023/06/23 16:21:21;;;;;;;4.07;2.65;;;;;;;;;;5080330;28;20035;-72
2023/06/23 16:24:06;;;;;;;4.43;2.83;;;;;;;;;;5080127;28;20035;-72
2023/06/23 16:26:51;;;;;;;4.68;2.70;;;;;;;;;;5079685;28;20368;-65
2023/06/23 16:29:36;;;;;;;4.15;2.42;;;;;;;;;;5080181;28;20032;-62
2023/06/23 16:32:22;;;;;;;4.03;2.95;;;;;;;;;;5079979;28;20059;-63
2023/06/23 16:35:07;;;;;;;5.43;3.47;;;;;;;;;;5079724;28;20069;-63